Time;durP1;ratioP1;P1;durP2;ratioP2;P2;SDS_P1;SDS_P2;PMS_P1;PMS_P2;Temp;Humidity;BMP_temperature;BMP_pressure;BME280_temperature;BME280_humidity;BME280_pressure;Samples;Min_cycle;Max_cycle;Signal;HPM_P1;HPM_P2
2022/02/26 00:00:51;;;;;;;;;;;;;;;;;;4940362;28;19918;-64
2022/02/26 00:03:17;;;;;;;;;;;;;;;;;;4952218;28;19918;-63
2022/02/26 00:05:45;;;;;;;;;;;;;;;;;;4958722;28;19937;-63
2022/02/26 00:08:12;;;;;;;;;;;;;;;;;;4949842;28;20005;-63
2022/02/26 00:10:39;;;;;;;;;;;;;;;;;;4958054;28;20019;-64
2022/02/26 00:13:07;;;;;;;;;;;;;;;;;;4953309;28;20369;-64
2022/02/26 00:15:35;;;;;;;;;;;;;;;;;;4954988;28;19918;-63
2022/02/26 00:18:01;;;;;;;;;;;;;;;;;;4954427;28;20320;-64
2022/02/26 00:20:28;;;;;;;;;;;;;;;;;;4955269;28;20056;-63
2022/02/26 00:22:54;;;;;;;;;;;;;;;;;;4952182;28;19929;-64
2022/02/26 00:25:20;;;;;;;;;;;;;;;;;;4956766;28;19922;-64
2022/02/26 00:27:46;;;;;;;;;;;;;;;;;;4954483;28;19933;-64
2022/02/26 00:30:13;;;;;;;;;;;;;;;;;;4951944;28;19922;-64
2022/02/26 00:32:39;;;;;;;;;;;;;;;;;;4956302;28;19941;-63
2022/02/26 00:35:06;;;;;;;;;;;;;;;;;;4954834;28;19926;-63
2022/02/26 00:37:32;;;;;;;;;;;;;;;;;;4957891;28;19956;-63
2022/02/26 00:39:58;;;;;;;;;;;;;;;;;;4949263;28;20481;-63
2022/02/26 00:42:25;;;;;;;;;;;;;;;;;;4958845;28;20616;-61
2022/02/26 00:44:51;;;;;;;;;;;;;;;;;;4955108;28;20119;-63
2022/02/26 00:47:17;;;;;;;;;;;;;;;;;;4953468;28;19917;-63
2022/02/26 00:49:52;;;;;;;;;;;;;;;;;;4960058;28;19951;-63
2022/02/26 00:52:18;;;;;;;;;;;;;;;;;;4955445;28;19928;-64
2022/02/26 00:54:44;;;;;;;;;;;;;;;;;;4940258;28;19918;-63
2022/02/26 00:57:10;;;;;;;;;;;;;;;;;;4936447;28;19961;-63
2022/02/26 00:59:36;;;;;;;;;;;;;;;;;;4954433;28;19914;-63
2022/02/26 01:02:03;;;;;;;;;;;;;;;;;;4950668;28;20419;-63
2022/02/26 01:04:29;;;;;;;;;;;;;;;;;;4939817;28;20409;-63
2022/02/26 01:06:55;;;;;;;;;;;;;;;;;;4953183;28;20396;-63
2022/02/26 01:09:21;;;;;;;;;;;;;;;;;;4959643;28;19925;-63
2022/02/26 01:11:47;;;;;;;;;;;;;;;;;;4945215;28;20608;-64
2022/02/26 01:14:13;;;;;;;;;;;;;;;;;;4948984;28;21161;-62
2022/02/26 01:16:40;;;;;;;;;;;;;;;;;;4952641;28;20364;-64
2022/02/26 01:19:06;;;;;;;;;;;;;;;;;;4951014;28;20395;-64
2022/02/26 01:21:32;;;;;;;;;;;;;;;;;;4953943;28;19922;-64
2022/02/26 01:23:58;;;;;;;;;;;;;;;;;;4950350;28;20460;-62
2022/02/26 01:26:24;;;;;;;;;;;;;;;;;;4951340;28;20011;-63
2022/02/26 01:28:50;;;;;;;;;;;;;;;;;;4955914;28;20297;-63
2022/02/26 01:31:17;;;;;;;;;;;;;;;;;;4950010;28;19940;-63
2022/02/26 01:33:43;;;;;;;;;;;;;;;;;;4953404;28;19961;-63
2022/02/26 01:36:09;;;;;;;;;;;;;;;;;;4948027;28;20029;-63
2022/02/26 01:38:35;;;;;;;;;;;;;;;;;;4958123;28;19918;-63
2022/02/26 01:41:01;;;;;;;;;;;;;;;;;;4948308;28;20466;-63
2022/02/26 01:43:27;;;;;;;;;;;;;;;;;;4958700;28;20021;-64
2022/02/26 01:45:53;;;;;;;;;;;;;;;;;;4956159;28;19925;-63
2022/02/26 01:48:19;;;;;;;;;;;;;;;;;;4955907;28;19928;-63
2022/02/26 01:50:45;;;;;;;;;;;;;;;;;;4949875;28;19948;-63
2022/02/26 01:53:11;;;;;;;;;;;;;;;;;;4952354;28;20617;-63
2022/02/26 01:55:38;;;;;;;;;;;;;;;;;;4956648;28;19965;-63
2022/02/26 01:58:04;;;;;;;;;;;;;;;;;;4955733;28;20419;-63
2022/02/26 02:00:31;;;;;;;;;;;;;;;;;;4954869;28;20005;-63
2022/02/26 02:02:57;;;;;;;;;;;;;;;;;;4956581;28;20040;-64
2022/02/26 02:05:23;;;;;;;;;;;;;;;;;;4956701;28;19929;-64
2022/02/26 02:07:50;;;;;;;;;;;;;;;;;;4957964;28;19929;-63
2022/02/26 02:10:16;;;;;;;;;;;;;;;;;;4958627;28;19914;-63
2022/02/26 02:12:42;;;;;;;;;;;;;;;;;;4959498;28;20357;-63
2022/02/26 02:15:09;;;;;;;;;;;;;;;;;;4959453;28;19924;-63
2022/02/26 02:17:35;;;;;;;;;;;;;;;;;;4962483;28;19953;-63
2022/02/26 02:20:01;;;;;;;;;;;;;;;;;;4960022;28;20433;-63
2022/02/26 02:22:27;;;;;;;;;;;;;;;;;;4954993;28;19918;-63
2022/02/26 02:24:53;;;;;;;;;;;;;;;;;;4944807;28;19988;-63
2022/02/26 02:27:19;;;;;;;;;;;;;;;;;;4961398;28;20432;-63
2022/02/26 02:29:45;;;;;;;;;;;;;;;;;;4961846;28;19992;-63
2022/02/26 02:32:13;;;;;;;;;;;;;;;;;;4952480;28;21523;-63
2022/02/26 02:34:40;;;;;;;;;;;;;;;;;;4964461;28;19925;-66
2022/02/26 02:37:10;;;;;;;;;;;;;;;;;;4951123;28;19921;-63
2022/02/26 02:39:36;;;;;;;;;;;;;;;;;;4959030;28;20009;-63
2022/02/26 02:42:03;;;;;;;;;;;;;;;;;;4956150;28;19917;-63
2022/02/26 02:44:29;;;;;;;;;;;;;;;;;;4957171;28;19926;-63
2022/02/26 02:46:55;;;;;;;;;;;;;;;;;;4957738;28;20321;-64
2022/02/26 02:49:22;;;;;;;;;;;;;;;;;;4960288;28;19977;-63
2022/02/26 02:51:48;;;;;;;;;;;;;;;;;;4961234;28;20735;-62
2022/02/26 02:54:14;;;;;;;;;;;;;;;;;;4955041;28;21225;-64
2022/02/26 02:56:40;;;;;;;;;;;;;;;;;;4958088;28;19922;-63
2022/02/26 02:59:06;;;;;;;;;;;;;;;;;;4954611;28;19929;-63
2022/02/26 03:01:32;;;;;;;;;;;;;;;;;;4959423;28;19965;-64
2022/02/26 03:03:58;;;;;;;;;;;;;;;;;;4956760;28;19918;-63
2022/02/26 03:06:25;;;;;;;;;;;;;;;;;;4959944;28;19926;-63
2022/02/26 03:08:51;;;;;;;;;;;;;;;;;;4956540;28;19922;-63
2022/02/26 03:11:19;;;;;;;;;;;;;;;;;;4942693;28;19922;-63
2022/02/26 03:13:46;;;;;;;;;;;;;;;;;;4956514;28;19918;-64
2022/02/26 03:16:12;;;;;;;;;;;;;;;;;;4957709;28;20855;-63
2022/02/26 03:18:39;;;;;;;;;;;;;;;;;;4948132;28;20337;-63
2022/02/26 03:21:06;;;;;;;;;;;;;;;;;;4952495;28;19918;-63
2022/02/26 03:23:32;;;;;;;;;;;;;;;;;;4948354;28;20436;-63
2022/02/26 03:25:59;;;;;;;;;;;;;;;;;;4950322;28;20007;-63
2022/02/26 03:28:26;;;;;;;;;;;;;;;;;;4961509;28;19957;-63
2022/02/26 03:30:52;;;;;;;;;;;;;;;;;;4962408;28;19929;-63
2022/02/26 03:33:19;;;;;;;;;;;;;;;;;;4953702;28;19918;-63
2022/02/26 03:35:45;;;;;;;;;;;;;;;;;;4958822;28;20280;-63
2022/02/26 03:38:12;;;;;;;;;;;;;;;;;;4959620;28;20035;-63
2022/02/26 03:40:39;;;;;;;;;;;;;;;;;;4963049;28;19924;-63
2022/02/26 03:43:09;;;;;;;;;;;;;;;;;;4951545;28;20016;-64
2022/02/26 03:45:35;;;;;;;;;;;;;;;;;;4959174;28;20368;-63
2022/02/26 03:48:02;;;;;;;;;;;;;;;;;;4956969;28;20428;-63
2022/02/26 03:50:28;;;;;;;;;;;;;;;;;;4956869;28;20285;-63
2022/02/26 03:52:54;;;;;;;;;;;;;;;;;;4953097;28;19925;-64
2022/02/26 03:55:21;;;;;;;;;;;;;;;;;;4963030;28;20227;-64
2022/02/26 03:57:47;;;;;;;;;;;;;;;;;;4951347;28;20029;-64
2022/02/26 04:00:13;;;;;;;;;;;;;;;;;;4954086;28;19929;-64
2022/02/26 04:02:42;;;;;;;;;;;;;;;;;;4961316;28;20392;-63
2022/02/26 04:05:08;;;;;;;;;;;;;;;;;;4944567;28;20464;-63
2022/02/26 04:07:35;;;;;;;;;;;;;;;;;;4948519;28;19925;-63
2022/02/26 04:10:02;;;;;;;;;;;;;;;;;;4953438;28;19972;-63
2022/02/26 04:12:28;;;;;;;;;;;;;;;;;;4945879;28;19918;-63
2022/02/26 04:14:54;;;;;;;;;;;;;;;;;;4954963;28;19929;-64
2022/02/26 04:17:20;;;;;;;;;;;;;;;;;;4955982;28;19918;-63
2022/02/26 04:19:47;;;;;;;;;;;;;;;;;;4959826;28;20285;-63
2022/02/26 04:22:15;;;;;;;;;;;;;;;;;;4952140;28;19922;-63
2022/02/26 04:24:41;;;;;;;;;;;;;;;;;;4957863;28;20265;-63
2022/02/26 04:27:07;;;;;;;;;;;;;;;;;;4954267;28;20385;-63
2022/02/26 04:29:33;;;;;;;;;;;;;;;;;;4958814;28;19918;-63
2022/02/26 04:32:00;;;;;;;;;;;;;;;;;;4955595;28;20072;-63
2022/02/26 04:34:26;;;;;;;;;;;;;;;;;;4958452;28;20353;-63
2022/02/26 04:36:52;;;;;;;;;;;;;;;;;;4937080;28;19929;-63
2022/02/26 04:39:18;;;;;;;;;;;;;;;;;;4955826;28;19933;-63
2022/02/26 04:41:44;;;;;;;;;;;;;;;;;;4951356;28;20001;-64
2022/02/26 04:44:11;;;;;;;;;;;;;;;;;;4952821;28;19925;-63
2022/02/26 04:46:38;;;;;;;;;;;;;;;;;;4956165;28;20032;-63
2022/02/26 04:49:04;;;;;;;;;;;;;;;;;;4954531;28;19950;-63
2022/02/26 04:51:31;;;;;;;;;;;;;;;;;;4961403;28;20013;-63
2022/02/26 04:53:58;;;;;;;;;;;;;;;;;;4952594;28;19930;-63
2022/02/26 04:56:23;;;;;;;;;;;;;;;;;;4958464;28;19924;-63
2022/02/26 04:58:49;;;;;;;;;;;;;;;;;;4959713;28;19917;-63
2022/02/26 05:01:16;;;;;;;;;;;;;;;;;;4953874;28;20292;-63
2022/02/26 05:03:43;;;;;;;;;;;;;;;;;;4959063;28;19918;-63
2022/02/26 05:06:11;;;;;;;;;;;;;;;;;;4952613;28;20407;-63
2022/02/26 05:08:36;;;;;;;;;;;;;;;;;;4960958;28;19922;-63
2022/02/26 05:11:03;;;;;;;;;;;;;;;;;;4957164;28;19918;-63
2022/02/26 05:13:30;;;;;;;;;;;;;;;;;;4960744;28;20021;-67
2022/02/26 05:15:56;;;;;;;;;;;;;;;;;;4953750;28;19918;-66
2022/02/26 05:18:22;;;;;;;;;;;;;;;;;;4958861;28;20404;-64
2022/02/26 05:20:49;;;;;;;;;;;;;;;;;;4956386;28;19918;-63
2022/02/26 05:23:17;;;;;;;;;;;;;;;;;;4953235;28;19917;-63
2022/02/26 05:25:44;;;;;;;;;;;;;;;;;;4956564;28;20025;-63
2022/02/26 05:28:11;;;;;;;;;;;;;;;;;;4952613;28;19957;-63
2022/02/26 05:30:38;;;;;;;;;;;;;;;;;;4959688;28;19917;-63
2022/02/26 05:33:04;;;;;;;;;;;;;;;;;;4957949;28;20369;-64
2022/02/26 05:35:32;;;;;;;;;;;;;;;;;;4957689;28;19918;-63
2022/02/26 05:37:58;;;;;;;;;;;;;;;;;;4950917;28;20504;-64
2022/02/26 05:40:24;;;;;;;;;;;;;;;;;;4959819;28;19924;-63
2022/02/26 05:42:52;;;;;;;;;;;;;;;;;;4958319;28;20020;-63
2022/02/26 05:45:18;;;;;;;;;;;;;;;;;;4960790;28;19921;-64
2022/02/26 05:47:44;;;;;;;;;;;;;;;;;;4953312;28;19925;-63
2022/02/26 05:50:10;;;;;;;;;;;;;;;;;;4956886;28;19918;-63
2022/02/26 05:52:37;;;;;;;;;;;;;;;;;;4957388;28;19914;-64
2022/02/26 05:55:03;;;;;;;;;;;;;;;;;;4955576;28;19926;-63
2022/02/26 05:57:30;;;;;;;;;;;;;;;;;;4961752;28;20191;-64
2022/02/26 05:59:56;;;;;;;;;;;;;;;;;;4956278;28;19965;-64
2022/02/26 06:02:22;;;;;;;;;;;;;;;;;;4956216;28;20420;-64
2022/02/26 06:04:49;;;;;;;;;;;;;;;;;;4965314;28;19924;-64
2022/02/26 06:07:16;;;;;;;;;;;;;;;;;;4954030;28;19933;-63
2022/02/26 06:09:42;;;;;;;;;;;;;;;;;;4966277;28;20671;-63
2022/02/26 06:12:08;;;;;;;;;;;;;;;;;;4957503;28;19925;-63
2022/02/26 06:14:35;;;;;;;;;;;;;;;;;;4961842;28;19918;-64
2022/02/26 06:17:03;;;;;;;;;;;;;;;;;;4959798;28;19924;-63
2022/02/26 06:19:29;;;;;;;;;;;;;;;;;;4963477;28;19998;-63
2022/02/26 06:21:55;;;;;;;;;;;;;;;;;;4964815;28;19940;-63
2022/02/26 06:24:21;;;;;;;;;;;;;;;;;;4954371;28;20914;-64
2022/02/26 06:26:47;;;;;;;;;;;;;;;;;;4969921;28;19926;-64
2022/02/26 06:29:13;;;;;;;;;;;;;;;;;;4947019;28;19989;-64
2022/02/26 06:31:40;;;;;;;;;;;;;;;;;;4973120;28;20655;-63
2022/02/26 06:34:06;;;;;;;;;;;;;;;;;;4961351;28;19997;-64
2022/02/26 06:36:37;;;;;;;;;;;;;;;;;;4955023;28;19914;-64
2022/02/26 06:39:04;;;;;;;;;;;;;;;;;;4961350;28;19958;-63
2022/02/26 06:41:30;;;;;;;;;;;;;;;;;;4968908;28;19918;-64
2022/02/26 06:43:56;;;;;;;;;;;;;;;;;;4962434;28;19924;-64
2022/02/26 06:46:22;;;;;;;;;;;;;;;;;;4967510;28;19932;-64
2022/02/26 06:48:48;;;;;;;;;;;;;;;;;;4968584;28;19924;-63
2022/02/26 06:51:14;;;;;;;;;;;;;;;;;;4951174;28;20481;-63
2022/02/26 06:53:41;;;;;;;;;;;;;;;;;;4968343;28;19926;-64
2022/02/26 06:56:08;;;;;;;;;;;;;;;;;;4964836;28;19918;-63
2022/02/26 06:58:34;;;;;;;;;;;;;;;;;;4964163;28;19917;-63
2022/02/26 07:01:02;;;;;;;;;;;;;;;;;;4960849;28;19918;-64
2022/02/26 07:03:28;;;;;;;;;;;;;;;;;;4965109;28;20097;-64
2022/02/26 07:05:54;;;;;;;;;;;;;;;;;;4948546;28;19949;-64
2022/02/26 07:08:20;;;;;;;;;;;;;;;;;;4968107;28;20274;-63
2022/02/26 07:10:46;;;;;;;;;;;;;;;;;;4961213;28;20013;-63
2022/02/26 07:13:12;;;;;;;;;;;;;;;;;;4962602;28;19922;-63
2022/02/26 07:15:38;;;;;;;;;;;;;;;;;;4973145;28;20515;-64
2022/02/26 07:18:05;;;;;;;;;;;;;;;;;;4962970;28;20479;-67
2022/02/26 07:20:32;;;;;;;;;;;;;;;;;;4974199;28;19930;-64
2022/02/26 07:22:59;;;;;;;;;;;;;;;;;;4970255;28;19976;-63
2022/02/26 07:25:26;;;;;;;;;;;;;;;;;;4964305;28;20107;-64
2022/02/26 07:27:52;;;;;;;;;;;;;;;;;;4962478;28;20391;-64
2022/02/26 07:30:18;;;;;;;;;;;;;;;;;;4968176;28;19924;-63
2022/02/26 07:32:45;;;;;;;;;;;;;;;;;;4967013;28;20044;-64
2022/02/26 07:35:11;;;;;;;;;;;;;;;;;;4950512;28;19922;-64
2022/02/26 07:37:37;;;;;;;;;;;;;;;;;;4967640;28;19923;-64
2022/02/26 07:40:04;;;;;;;;;;;;;;;;;;4964189;28;19929;-63
2022/02/26 07:42:30;;;;;;;;;;;;;;;;;;4969001;28;20001;-64
2022/02/26 07:44:56;;;;;;;;;;;;;;;;;;4962014;28;20494;-63
2022/02/26 07:47:22;;;;;;;;;;;;;;;;;;4954112;28;19941;-63
2022/02/26 07:49:49;;;;;;;;;;;;;;;;;;4964307;28;19922;-63
2022/02/26 07:52:16;;;;;;;;;;;;;;;;;;4967306;28;19956;-63
2022/02/26 07:54:42;;;;;;;;;;;;;;;;;;4966723;28;19925;-58
2022/02/26 07:57:08;;;;;;;;;;;;;;;;;;4947733;28;20043;-58
2022/02/26 07:59:36;;;;;;;;;;;;;;;;;;4968483;28;20373;-58
2022/02/26 08:02:02;;;;;;;;;;;;;;;;;;4962752;28;19969;-59
2022/02/26 08:04:28;;;;;;;;;;;;;;;;;;4967749;28;19918;-58
2022/02/26 08:06:55;;;;;;;;;;;;;;;;;;4959252;28;19922;-59
2022/02/26 08:09:21;;;;;;;;;;;;;;;;;;4963832;28;19922;-58
2022/02/26 08:11:47;;;;;;;;;;;;;;;;;;4965299;28;19917;-58
2022/02/26 08:14:13;;;;;;;;;;;;;;;;;;4959712;28;19929;-58
2022/02/26 08:16:39;;;;;;;;;;;;;;;;;;4969971;28;19923;-59
2022/02/26 08:19:05;;;;;;;;;;;;;;;;;;4964778;28;19971;-58
2022/02/26 08:21:34;;;;;;;;;;;;;;;;;;4965501;28;20305;-58
2022/02/26 08:24:00;;;;;;;;;;;;;;;;;;4949722;28;20899;-58
2022/02/26 08:26:26;;;;;;;;;;;;;;;;;;4964476;28;19972;-58
2022/02/26 08:28:52;;;;;;;;;;;;;;;;;;4963663;28;20013;-59
2022/02/26 08:31:18;;;;;;;;;;;;;;;;;;4949582;28;19914;-58
2022/02/26 08:33:45;;;;;;;;;;;;;;;;;;4963548;28;20106;-59
2022/02/26 08:36:12;;;;;;;;;;;;;;;;;;4959052;28;20601;-58
2022/02/26 08:38:38;;;;;;;;;;;;;;;;;;4967142;28;20036;-59
2022/02/26 08:41:05;;;;;;;;;;;;;;;;;;4968148;28;19938;-58
2022/02/26 08:43:31;;;;;;;;;;;;;;;;;;4965124;28;20142;-59
2022/02/26 08:45:58;;;;;;;;;;;;;;;;;;4960472;28;20080;-58
2022/02/26 08:48:24;;;;;;;;;;;;;;;;;;4956210;28;20031;-58
2022/02/26 08:50:50;;;;;;;;;;;;;;;;;;4947384;28;19922;-59
2022/02/26 08:53:17;;;;;;;;;;;;;;;;;;4958090;28;19925;-60
2022/02/26 08:55:43;;;;;;;;;;;;;;;;;;4952990;28;19924;-60
2022/02/26 08:58:09;;;;;;;;;;;;;;;;;;4958441;28;20254;-58
2022/02/26 09:00:36;;;;;;;;;;;;;;;;;;4970869;28;19949;-62
2022/02/26 09:03:02;;;;;;;;;;;;;;;;;;4960310;28;20574;-58
2022/02/26 09:05:29;;;;;;;;;;;;;;;;;;4964214;28;19926;-58
2022/02/26 09:07:56;;;;;;;;;;;;;;;;;;4961705;28;19922;-59
2022/02/26 09:10:23;;;;;;;;;;;;;;;;;;4962662;28;19925;-58
2022/02/26 09:12:49;;;;;;;;;;;;;;;;;;4964738;28;20016;-58
2022/02/26 09:15:17;;;;;;;;;;;;;;;;;;4958739;28;19914;-58
2022/02/26 09:17:46;;;;;;;;;;;;;;;;;;4913441;28;19925;-58
2022/02/26 09:20:12;;;;;;;;;;;;;;;;;;4961906;28;19921;-59
2022/02/26 09:22:38;;;;;;;;;;;;;;;;;;4961170;28;19914;-58
2022/02/26 09:25:04;;;;;;;;;;;;;;;;;;4961229;28;19932;-59
2022/02/26 09:27:30;;;;;;;;;;;;;;;;;;4962939;28;19925;-58
2022/02/26 09:29:57;;;;;;;;;;;;;;;;;;4957158;28;19946;-59
2022/02/26 09:32:27;;;;;;;;;;;;;;;;;;4950725;28;19949;-59
2022/02/26 09:34:53;;;;;;;;;;;;;;;;;;4957017;28;19945;-59
2022/02/26 09:37:19;;;;;;;;;;;;;;;;;;4960847;28;19928;-59
2022/02/26 09:39:47;;;;;;;;;;;;;;;;;;4961743;28;19925;-59
2022/02/26 09:42:14;;;;;;;;;;;;;;;;;;4955470;28;20039;-61
2022/02/26 09:44:40;;;;;;;;;;;;;;;;;;4966107;28;19925;-59
2022/02/26 09:47:07;;;;;;;;;;;;;;;;;;4948880;28;19996;-61
2022/02/26 09:49:34;;;;;;;;;;;;;;;;;;4963032;28;19922;-59
2022/02/26 09:52:02;;;;;;;;;;;;;;;;;;4959325;28;19917;-59
2022/02/26 09:54:28;;;;;;;;;;;;;;;;;;4961247;28;19937;-59
2022/02/26 09:56:54;;;;;;;;;;;;;;;;;;4941763;28;20022;-59
2022/02/26 09:59:21;;;;;;;;;;;;;;;;;;4956335;28;19964;-59
2022/02/26 10:01:47;;;;;;;;;;;;;;;;;;4959897;28;19928;-59
2022/02/26 10:04:15;;;;;;;;;;;;;;;;;;4959586;28;19921;-59
2022/02/26 10:06:41;;;;;;;;;;;;;;;;;;4963388;28;19922;-61
2022/02/26 10:09:09;;;;;;;;;;;;;;;;;;4959210;28;19929;-59
2022/02/26 10:11:36;;;;;;;;;;;;;;;;;;4956141;28;19925;-59
2022/02/26 10:14:02;;;;;;;;;;;;;;;;;;4942742;28;19918;-58
2022/02/26 10:16:28;;;;;;;;;;;;;;;;;;4962846;28;19917;-59
2022/02/26 10:18:54;;;;;;;;;;;;;;;;;;4956190;28;20491;-58
2022/02/26 10:21:20;;;;;;;;;;;;;;;;;;4960747;28;19926;-59
2022/02/26 10:23:46;;;;;;;;;;;;;;;;;;4961517;28;20024;-60
2022/02/26 10:26:15;;;;;;;;;;;;;;;;;;4958567;28;19976;-59
2022/02/26 10:28:43;;;;;;;;;;;;;;;;;;4963730;28;20430;-59
2022/02/26 10:31:11;;;;;;;;;;;;;;;;;;4959624;28;19924;-59
2022/02/26 10:33:37;;;;;;;;;;;;;;;;;;4953354;28;19925;-59
2022/02/26 10:36:05;;;;;;;;;;;;;;;;;;4960805;28;20360;-59
2022/02/26 10:38:33;;;;;;;;;;;;;;;;;;4965729;28;20033;-59
2022/02/26 10:41:08;;;;;;;;;;;;;;;;;;4961613;28;19944;-59
2022/02/26 10:43:36;;;;;;;;;;;;;;;;;;4962281;28;19922;-58
2022/02/26 10:46:03;;;;;;;;;;;;;;;;;;4967159;28;20600;-59
2022/02/26 10:48:29;;;;;;;;;;;;;;;;;;4963829;28;20740;-59
2022/02/26 10:50:55;;;;;;;;;;;;;;;;;;4966879;28;20344;-59
2022/02/26 10:53:22;;;;;;;;;;;;;;;;;;4948367;28;19925;-59
2022/02/26 10:55:50;;;;;;;;;;;;;;;;;;4962738;28;19918;-59
2022/02/26 10:58:17;;;;;;;;;;;;;;;;;;4961807;28;20306;-59
2022/02/26 11:00:43;;;;;;;;;;;;;;;;;;4948453;28;19920;-59
2022/02/26 11:03:09;;;;;;;;;;;;;;;;;;4961409;28;19917;-59
2022/02/26 11:05:36;;;;;;;;;;;;;;;;;;4948642;28;20223;-59
2022/02/26 11:08:02;;;;;;;;;;;;;;;;;;4961199;28;20012;-59
2022/02/26 11:10:28;;;;;;;;;;;;;;;;;;4967518;28;19913;-59
2022/02/26 11:12:54;;;;;;;;;;;;;;;;;;4960338;28;21155;-60
2022/02/26 11:15:20;;;;;;;;;;;;;;;;;;4969344;28;19914;-61
2022/02/26 11:17:46;;;;;;;;;;;;;;;;;;4964378;28;19922;-60
2022/02/26 11:20:16;;;;;;;;;;;;;;;;;;4965607;28;21708;-61
2022/02/26 11:22:42;;;;;;;;;;;;;;;;;;4968905;28;19952;-61
2022/02/26 11:25:08;;;;;;;;;;;;;;;;;;4960160;28;19918;-59
2022/02/26 11:27:34;;;;;;;;;;;;;;;;;;4954692;28;19957;-60
2022/02/26 11:30:00;;;;;;;;;;;;;;;;;;4943193;28;20010;-60
2022/02/26 11:32:28;;;;;;;;;;;;;;;;;;4950883;28;19929;-60
2022/02/26 11:34:54;;;;;;;;;;;;;;;;;;4958563;28;19918;-61
2022/02/26 11:37:20;;;;;;;;;;;;;;;;;;4964394;28;20680;-60
2022/02/26 11:39:47;;;;;;;;;;;;;;;;;;4965431;28;19927;-60
2022/02/26 11:42:13;;;;;;;;;;;;;;;;;;4955100;28;19922;-61
2022/02/26 11:44:39;;;;;;;;;;;;;;;;;;4959906;28;20302;-60
2022/02/26 11:47:07;;;;;;;;;;;;;;;;;;4958789;28;19975;-60
2022/02/26 11:49:33;;;;;;;;;;;;;;;;;;4962093;28;20277;-65
2022/02/26 11:51:59;;;;;;;;;;;;;;;;;;4948158;28;20005;-61
2022/02/26 11:54:26;;;;;;;;;;;;;;;;;;4962536;28;19936;-60
2022/02/26 11:56:52;;;;;;;;;;;;;;;;;;4966299;28;19924;-60
2022/02/26 11:59:18;;;;;;;;;;;;;;;;;;4960297;28;19937;-60
2022/02/26 12:01:44;;;;;;;;;;;;;;;;;;4964254;28;19921;-60
2022/02/26 12:04:11;;;;;;;;;;;;;;;;;;4961438;28;19926;-60
2022/02/26 12:06:40;;;;;;;;;;;;;;;;;;4961711;28;20349;-59
2022/02/26 12:09:07;;;;;;;;;;;;;;;;;;4961619;28;20017;-60
2022/02/26 12:11:36;;;;;;;;;;;;;;;;;;4964011;28;19917;-60
2022/02/26 12:14:05;;;;;;;;;;;;;;;;;;4959217;28;19953;-60
2022/02/26 12:16:35;;;;;;;;;;;;;;;;;;4963406;28;19922;-60
2022/02/26 12:19:01;;;;;;;;;;;;;;;;;;4959575;28;20814;-60
2022/02/26 12:21:30;;;;;;;;;;;;;;;;;;4968637;28;19995;-60
2022/02/26 12:23:56;;;;;;;;;;;;;;;;;;4958210;28;19969;-60
2022/02/26 12:26:22;;;;;;;;;;;;;;;;;;4966585;28;19925;-60
2022/02/26 12:28:48;;;;;;;;;;;;;;;;;;4964182;28;19961;-60
2022/02/26 12:31:15;;;;;;;;;;;;;;;;;;4959294;28;20032;-60
2022/02/26 12:33:42;;;;;;;;;;;;;;;;;;4964912;28;19929;-60
2022/02/26 12:36:10;;;;;;;;;;;;;;;;;;4939402;28;20033;-60
2022/02/26 12:38:36;;;;;;;;;;;;;;;;;;4968791;28;19922;-60
2022/02/26 12:41:02;;;;;;;;;;;;;;;;;;4944425;28;19924;-60
2022/02/26 12:43:30;;;;;;;;;;;;;;;;;;4963732;28;20394;-60
2022/02/26 12:45:57;;;;;;;;;;;;;;;;;;4957356;28;19985;-61
2022/02/26 12:48:23;;;;;;;;;;;;;;;;;;4959588;28;20000;-60
2022/02/26 12:50:53;;;;;;;;;;;;;;;;;;4966283;28;20266;-61
2022/02/26 12:53:19;;;;;;;;;;;;;;;;;;4961594;28;19914;-60
2022/02/26 12:55:45;;;;;;;;;;;;;;;;;;4950868;28;19977;-60
2022/02/26 12:58:11;;;;;;;;;;;;;;;;;;4958551;28;20450;-60
2022/02/26 13:00:39;;;;;;;;;;;;;;;;;;4962929;28;19933;-61
2022/02/26 13:03:06;;;;;;;;;;;;;;;;;;4962542;28;19913;-60
2022/02/26 13:05:32;;;;;;;;;;;;;;;;;;4961484;28;19929;-61
2022/02/26 13:07:58;;;;;;;;;;;;;;;;;;4941610;28;19929;-60
2022/02/26 13:10:24;;;;;;;;;;;;;;;;;;4963276;28;19917;-60
2022/02/26 13:12:50;;;;;;;;;;;;;;;;;;4962546;28;19925;-60
2022/02/26 13:15:16;;;;;;;;;;;;;;;;;;4944463;28;20653;-60
2022/02/26 13:17:42;;;;;;;;;;;;;;;;;;4962684;28;20597;-60
2022/02/26 13:20:10;;;;;;;;;;;;;;;;;;4959705;28;19914;-60
2022/02/26 13:22:36;;;;;;;;;;;;;;;;;;4961241;28;19925;-61
2022/02/26 13:25:02;;;;;;;;;;;;;;;;;;4960975;28;19980;-60
2022/02/26 13:27:28;;;;;;;;;;;;;;;;;;4963525;28;19944;-60
2022/02/26 13:29:56;;;;;;;;;;;;;;;;;;4959067;28;20012;-60
2022/02/26 13:32:22;;;;;;;;;;;;;;;;;;4964841;28;20502;-61
2022/02/26 13:34:48;;;;;;;;;;;;;;;;;;4963276;28;20028;-60
2022/02/26 13:37:16;;;;;;;;;;;;;;;;;;4961699;28;20003;-61
2022/02/26 13:39:42;;;;;;;;;;;;;;;;;;4947390;28;19988;-61
2022/02/26 13:42:08;;;;;;;;;;;;;;;;;;4958576;28;20817;-60
2022/02/26 13:44:35;;;;;;;;;;;;;;;;;;4949417;28;20427;-60
2022/02/26 13:47:00;;;;;;;;;;;;;;;;;;4956817;28;19928;-61
2022/02/26 13:49:27;;;;;;;;;;;;;;;;;;4964746;28;19926;-60
2022/02/26 13:51:53;;;;;;;;;;;;;;;;;;4960137;28;19925;-61
2022/02/26 13:54:21;;;;;;;;;;;;;;;;;;4958335;28;19925;-60
2022/02/26 13:56:47;;;;;;;;;;;;;;;;;;4960916;28;19917;-61
2022/02/26 13:59:13;;;;;;;;;;;;;;;;;;4954968;28;22067;-61
2022/02/26 14:01:39;;;;;;;;;;;;;;;;;;4966671;28;20661;-61
2022/02/26 14:04:05;;;;;;;;;;;;;;;;;;4954680;28;19929;-60
2022/02/26 14:06:31;;;;;;;;;;;;;;;;;;4965743;28;20449;-61
2022/02/26 14:08:58;;;;;;;;;;;;;;;;;;4962426;28;19921;-61
2022/02/26 14:11:25;;;;;;;;;;;;;;;;;;4966251;28;20025;-60
2022/02/26 14:13:53;;;;;;;;;;;;;;;;;;4967469;28;20020;-61
2022/02/26 14:16:20;;;;;;;;;;;;;;;;;;4946687;28;20274;-61
2022/02/26 14:18:46;;;;;;;;;;;;;;;;;;4969799;28;20074;-61
2022/02/26 14:21:12;;;;;;;;;;;;;;;;;;4962876;28;25284;-61
2022/02/26 14:23:39;;;;;;;;;;;;;;;;;;4948518;28;19922;-61
2022/02/26 14:26:07;;;;;;;;;;;;;;;;;;4961153;28;19968;-60
2022/02/26 14:28:33;;;;;;;;;;;;;;;;;;4965854;28;19970;-61
2022/02/26 14:31:00;;;;;;;;;;;;;;;;;;4947525;28;19972;-60
2022/02/26 14:33:27;;;;;;;;;;;;;;;;;;4966096;28;20491;-61
2022/02/26 14:35:53;;;;;;;;;;;;;;;;;;4964194;28;20005;-61
2022/02/26 14:38:19;;;;;;;;;;;;;;;;;;4965562;28;19925;-61
2022/02/26 14:40:47;;;;;;;;;;;;;;;;;;4963353;28;19922;-61
2022/02/26 14:43:13;;;;;;;;;;;;;;;;;;4965354;28;19922;-60
2022/02/26 14:45:41;;;;;;;;;;;;;;;;;;4945508;28;20325;-60
2022/02/26 14:48:08;;;;;;;;;;;;;;;;;;4962602;28;19918;-61
2022/02/26 14:50:36;;;;;;;;;;;;;;;;;;4962763;28;19918;-60
2022/02/26 14:53:03;;;;;;;;;;;;;;;;;;4961607;28;20060;-60
2022/02/26 14:55:29;;;;;;;;;;;;;;;;;;4967241;28;20464;-60
2022/02/26 14:57:55;;;;;;;;;;;;;;;;;;4946406;28;20012;-61
2022/02/26 15:00:21;;;;;;;;;;;;;;;;;;4965880;28;19922;-60
2022/02/26 15:02:48;;;;;;;;;;;;;;;;;;4964843;28;20522;-60
2022/02/26 15:05:13;;;;;;;;;;;;;;;;;;4961312;28;20285;-61
2022/02/26 15:07:43;;;;;;;;;;;;;;;;;;4967063;28;19918;-61
2022/02/26 15:10:10;;;;;;;;;;;;;;;;;;4958055;28;20016;-62
2022/02/26 15:12:36;;;;;;;;;;;;;;;;;;4973212;28;19940;-65
2022/02/26 15:15:01;;;;;;;;;;;;;;;;;;4956883;28;21646;-63
2022/02/26 15:17:27;;;;;;;;;;;;;;;;;;4965342;28;19922;-62
2022/02/26 15:19:53;;;;;;;;;;;;;;;;;;4962615;28;19918;-63
2022/02/26 15:22:20;;;;;;;;;;;;;;;;;;4963795;28;19922;-63
2022/02/26 15:24:46;;;;;;;;;;;;;;;;;;4969638;28;20440;-63
2022/02/26 15:27:13;;;;;;;;;;;;;;;;;;4958039;28;20648;-63
2022/02/26 15:29:39;;;;;;;;;;;;;;;;;;4965455;28;20726;-63
2022/02/26 15:32:05;;;;;;;;;;;;;;;;;;4960313;28;19981;-62
2022/02/26 15:34:31;;;;;;;;;;;;;;;;;;4965356;28;19917;-62
2022/02/26 15:36:59;;;;;;;;;;;;;;;;;;4946187;28;19921;-62
2022/02/26 15:39:26;;;;;;;;;;;;;;;;;;4949334;28;19925;-62
2022/02/26 15:41:52;;;;;;;;;;;;;;;;;;4964239;28;20032;-62
2022/02/26 15:44:18;;;;;;;;;;;;;;;;;;4956171;28;19925;-61
2022/02/26 15:46:45;;;;;;;;;;;;;;;;;;4960770;28;20353;-62
2022/02/26 15:49:11;;;;;;;;;;;;;;;;;;4958470;28;19925;-62
2022/02/26 15:51:40;;;;;;;;;;;;;;;;;;4963403;28;19929;-62
2022/02/26 15:54:08;;;;;;;;;;;;;;;;;;4946603;28;19925;-62
2022/02/26 15:56:34;;;;;;;;;;;;;;;;;;4964201;28;20041;-63
2022/02/26 15:59:00;;;;;;;;;;;;;;;;;;4956767;28;19926;-62
2022/02/26 16:01:28;;;;;;;;;;;;;;;;;;4963284;28;20321;-63
2022/02/26 16:03:55;;;;;;;;;;;;;;;;;;4962109;28;19926;-62
2022/02/26 16:06:22;;;;;;;;;;;;;;;;;;4967277;28;20368;-62
2022/02/26 16:08:49;;;;;;;;;;;;;;;;;;4953966;28;19926;-61
2022/02/26 16:11:18;;;;;;;;;;;;;;;;;;4954197;28;20376;-62
2022/02/26 16:13:44;;;;;;;;;;;;;;;;;;4962743;28;20293;-62
2022/02/26 16:16:10;;;;;;;;;;;;;;;;;;4957321;28;19921;-61
2022/02/26 16:18:36;;;;;;;;;;;;;;;;;;4947144;28;20371;-62
2022/02/26 16:21:02;;;;;;;;;;;;;;;;;;4956792;28;19922;-62
2022/02/26 16:23:28;;;;;;;;;;;;;;;;;;4951512;28;20061;-62
2022/02/26 16:25:54;;;;;;;;;;;;;;;;;;4956870;28;19952;-62
2022/02/26 16:28:24;;;;;;;;;;;;;;;;;;4966864;28;19929;-62
2022/02/26 16:30:51;;;;;;;;;;;;;;;;;;4967085;28;19926;-61
2022/02/26 16:33:20;;;;;;;;;;;;;;;;;;4957404;28;20025;-61
2022/02/26 16:35:46;;;;;;;;;;;;;;;;;;4951667;28;19917;-60
2022/02/26 16:38:13;;;;;;;;;;;;;;;;;;4957487;28;25199;-61
2022/02/26 16:40:39;;;;;;;;;;;;;;;;;;4965181;28;20593;-61